sensor_id;sensor_type;location;lat;lon;timestamp;P1;durP1;ratioP1;P2;durP2;ratioP2
59054;SDS011;44845;51.444;7.460;2024-01-30T00:00:23;7.80;;;5.22;;
59054;SDS011;44845;51.444;7.460;2024-01-30T00:02:48;8.65;;;5.35;;
59054;SDS011;44845;51.444;7.460;2024-01-30T00:05:13;8.63;;;5.22;;
59054;SDS011;44845;51.444;7.460;2024-01-30T00:07:39;9.07;;;5.20;;
59054;SDS011;44845;51.444;7.460;2024-01-30T00:10:04;9.93;;;5.40;;
59054;SDS011;44845;51.444;7.460;2024-01-30T00:12:31;9.30;;;5.53;;
59054;SDS011;44845;51.444;7.460;2024-01-30T00:14:57;11.40;;;5.25;;
59054;SDS011;44845;51.444;7.460;2024-01-30T00:17:22;9.10;;;5.28;;
59054;SDS011;44845;51.444;7.460;2024-01-30T00:19:50;7.70;;;5.68;;
59054;SDS011;44845;51.444;7.460;2024-01-30T00:22:15;8.30;;;5.38;;
59054;SDS011;44845;51.444;7.460;2024-01-30T00:24:40;8.27;;;5.68;;
59054;SDS011;44845;51.444;7.460;2024-01-30T00:27:06;7.50;;;5.45;;
59054;SDS011;44845;51.444;7.460;2024-01-30T00:29:32;10.77;;;5.85;;
59054;SDS011;44845;51.444;7.460;2024-01-30T00:31:58;8.85;;;5.57;;
59054;SDS011;44845;51.444;7.460;2024-01-30T00:34:24;7.22;;;5.78;;
59054;SDS011;44845;51.444;7.460;2024-01-30T00:36:50;9.07;;;5.30;;
59054;SDS011;44845;51.444;7.460;2024-01-30T00:39:15;8.18;;;5.60;;
59054;SDS011;44845;51.444;7.460;2024-01-30T00:41:41;7.80;;;5.72;;
59054;SDS011;44845;51.444;7.460;2024-01-30T00:44:06;9.90;;;5.05;;
59054;SDS011;44845;51.444;7.460;2024-01-30T00:46:32;8.48;;;5.10;;
59054;SDS011;44845;51.444;7.460;2024-01-30T00:48:58;7.85;;;5.15;;
59054;SDS011;44845;51.444;7.460;2024-01-30T00:51:23;12.00;;;6.18;;
59054;SDS011;44845;51.444;7.460;2024-01-30T00:53:48;11.18;;;6.43;;
59054;SDS011;44845;51.444;7.460;2024-01-30T00:56:14;12.45;;;5.75;;
59054;SDS011;44845;51.444;7.460;2024-01-30T00:58:43;7.88;;;5.38;;
59054;SDS011;44845;51.444;7.460;2024-01-30T01:01:08;11.75;;;6.18;;
59054;SDS011;44845;51.444;7.460;2024-01-30T01:03:33;8.27;;;5.65;;
59054;SDS011;44845;51.444;7.460;2024-01-30T01:05:59;9.30;;;5.47;;
59054;SDS011;44845;51.444;7.460;2024-01-30T01:08:24;9.85;;;5.63;;
59054;SDS011;44845;51.444;7.460;2024-01-30T01:10:50;8.20;;;5.47;;
59054;SDS011;44845;51.444;7.460;2024-01-30T01:13:15;10.07;;;5.70;;
59054;SDS011;44845;51.444;7.460;2024-01-30T01:15:40;13.10;;;5.72;;
59054;SDS011;44845;51.444;7.460;2024-01-30T01:18:06;8.70;;;5.25;;
59054;SDS011;44845;51.444;7.460;2024-01-30T01:20:31;9.95;;;6.20;;
59054;SDS011;44845;51.444;7.460;2024-01-30T01:22:57;8.15;;;5.70;;
59054;SDS011;44845;51.444;7.460;2024-01-30T01:25:22;8.63;;;5.97;;
59054;SDS011;44845;51.444;7.460;2024-01-30T01:27:47;9.43;;;5.60;;
59054;SDS011;44845;51.444;7.460;2024-01-30T01:30:16;8.38;;;5.95;;
59054;SDS011;44845;51.444;7.460;2024-01-30T01:32:46;9.13;;;5.93;;
59054;SDS011;44845;51.444;7.460;2024-01-30T01:35:22;10.45;;;5.38;;
59054;SDS011;44845;51.444;7.460;2024-01-30T01:37:49;10.80;;;5.70;;
59054;SDS011;44845;51.444;7.460;2024-01-30T01:40:20;12.18;;;5.80;;
59054;SDS011;44845;51.444;7.460;2024-01-30T01:42:49;10.23;;;6.30;;
59054;SDS011;44845;51.444;7.460;2024-01-30T01:45:15;12.50;;;6.28;;
59054;SDS011;44845;51.444;7.460;2024-01-30T01:47:41;7.85;;;5.68;;
59054;SDS011;44845;51.444;7.460;2024-01-30T01:50:07;8.60;;;5.72;;
59054;SDS011;44845;51.444;7.460;2024-01-30T01:52:33;10.90;;;5.60;;
59054;SDS011;44845;51.444;7.460;2024-01-30T01:54:59;11.55;;;5.93;;
59054;SDS011;44845;51.444;7.460;2024-01-30T01:57:24;6.80;;;5.40;;
59054;SDS011;44845;51.444;7.460;2024-01-30T01:59:50;10.13;;;5.57;;
59054;SDS011;44845;51.444;7.460;2024-01-30T02:02:16;8.27;;;5.65;;
59054;SDS011;44845;51.444;7.460;2024-01-30T02:04:44;7.82;;;5.35;;
59054;SDS011;44845;51.444;7.460;2024-01-30T02:07:12;14.85;;;6.60;;
59054;SDS011;44845;51.444;7.460;2024-01-30T02:09:38;9.30;;;6.10;;
59054;SDS011;44845;51.444;7.460;2024-01-30T02:12:03;13.55;;;6.35;;
59054;SDS011;44845;51.444;7.460;2024-01-30T02:14:28;9.63;;;5.60;;
59054;SDS011;44845;51.444;7.460;2024-01-30T02:16:54;7.57;;;5.68;;
59054;SDS011;44845;51.444;7.460;2024-01-30T02:19:19;10.50;;;5.47;;
59054;SDS011;44845;51.444;7.460;2024-01-30T02:21:45;9.23;;;6.03;;
59054;SDS011;44845;51.444;7.460;2024-01-30T02:24:11;11.80;;;5.78;;
59054;SDS011;44845;51.444;7.460;2024-01-30T02:26:36;8.63;;;5.65;;
59054;SDS011;44845;51.444;7.460;2024-01-30T02:29:01;12.25;;;5.85;;
59054;SDS011;44845;51.444;7.460;2024-01-30T02:31:27;9.63;;;5.53;;
59054;SDS011;44845;51.444;7.460;2024-01-30T02:33:52;9.20;;;5.18;;
59054;SDS011;44845;51.444;7.460;2024-01-30T02:36:17;10.57;;;5.47;;
59054;SDS011;44845;51.444;7.460;2024-01-30T02:38:43;9.90;;;5.82;;
59054;SDS011;44845;51.444;7.460;2024-01-30T02:41:08;9.25;;;5.40;;
59054;SDS011;44845;51.444;7.460;2024-01-30T02:43:34;9.73;;;5.30;;
59054;SDS011;44845;51.444;7.460;2024-01-30T02:45:59;12.95;;;5.20;;
59054;SDS011;44845;51.444;7.460;2024-01-30T02:48:25;9.27;;;5.22;;
59054;SDS011;44845;51.444;7.460;2024-01-30T02:50:51;8.88;;;5.35;;
59054;SDS011;44845;51.444;7.460;2024-01-30T02:53:16;9.15;;;5.25;;
59054;SDS011;44845;51.444;7.460;2024-01-30T02:55:41;9.43;;;5.20;;
59054;SDS011;44845;51.444;7.460;2024-01-30T02:58:07;11.68;;;5.35;;
59054;SDS011;44845;51.444;7.460;2024-01-30T03:00:33;10.07;;;5.38;;
59054;SDS011;44845;51.444;7.460;2024-01-30T03:02:59;8.68;;;5.15;;
59054;SDS011;44845;51.444;7.460;2024-01-30T03:05:24;9.93;;;5.00;;
59054;SDS011;44845;51.444;7.460;2024-01-30T03:07:50;8.85;;;5.55;;
59054;SDS011;44845;51.444;7.460;2024-01-30T03:10:15;7.88;;;4.97;;
59054;SDS011;44845;51.444;7.460;2024-01-30T03:12:40;9.43;;;5.25;;
59054;SDS011;44845;51.444;7.460;2024-01-30T03:15:06;11.10;;;5.03;;
59054;SDS011;44845;51.444;7.460;2024-01-30T03:17:31;8.13;;;4.93;;
59054;SDS011;44845;51.444;7.460;2024-01-30T03:19:57;6.78;;;4.82;;
59054;SDS011;44845;51.444;7.460;2024-01-30T03:22:22;8.52;;;5.35;;
59054;SDS011;44845;51.444;7.460;2024-01-30T03:24:48;7.75;;;5.05;;
59054;SDS011;44845;51.444;7.460;2024-01-30T03:27:13;9.68;;;5.22;;
59054;SDS011;44845;51.444;7.460;2024-01-30T03:29:38;7.55;;;5.40;;
59054;SDS011;44845;51.444;7.460;2024-01-30T03:32:04;7.18;;;4.88;;
59054;SDS011;44845;51.444;7.460;2024-01-30T03:34:29;9.88;;;4.85;;
59054;SDS011;44845;51.444;7.460;2024-01-30T03:36:55;8.27;;;4.80;;
59054;SDS011;44845;51.444;7.460;2024-01-30T03:39:20;7.68;;;5.03;;
59054;SDS011;44845;51.444;7.460;2024-01-30T03:41:45;8.23;;;5.10;;
59054;SDS011;44845;51.444;7.460;2024-01-30T03:44:11;7.07;;;4.75;;
59054;SDS011;44845;51.444;7.460;2024-01-30T03:46:36;9.23;;;5.45;;
59054;SDS011;44845;51.444;7.460;2024-01-30T03:49:02;6.70;;;5.10;;
59054;SDS011;44845;51.444;7.460;2024-01-30T03:51:27;5.75;;;4.47;;
59054;SDS011;44845;51.444;7.460;2024-01-30T03:53:52;7.82;;;5.03;;
59054;SDS011;44845;51.444;7.460;2024-01-30T03:56:18;6.38;;;4.57;;
59054;SDS011;44845;51.444;7.460;2024-01-30T03:58:43;10.30;;;5.00;;
59054;SDS011;44845;51.444;7.460;2024-01-30T04:01:12;7.47;;;4.68;;
59054;SDS011;44845;51.444;7.460;2024-01-30T04:03:41;9.73;;;4.97;;
59054;SDS011;44845;51.444;7.460;2024-01-30T04:06:08;8.95;;;4.88;;
59054;SDS011;44845;51.444;7.460;2024-01-30T04:08:34;8.68;;;4.90;;
59054;SDS011;44845;51.444;7.460;2024-01-30T04:11:02;6.97;;;4.40;;
59054;SDS011;44845;51.444;7.460;2024-01-30T04:13:31;10.48;;;5.10;;
59054;SDS011;44845;51.444;7.460;2024-01-30T04:15:58;10.55;;;5.18;;
59054;SDS011;44845;51.444;7.460;2024-01-30T04:18:26;5.90;;;4.43;;
59054;SDS011;44845;51.444;7.460;2024-01-30T04:20:51;7.25;;;4.97;;
59054;SDS011;44845;51.444;7.460;2024-01-30T04:23:17;13.60;;;5.15;;
59054;SDS011;44845;51.444;7.460;2024-01-30T04:25:42;7.25;;;4.15;;
59054;SDS011;44845;51.444;7.460;2024-01-30T04:28:07;7.55;;;4.78;;
59054;SDS011;44845;51.444;7.460;2024-01-30T04:30:33;9.88;;;4.90;;
59054;SDS011;44845;51.444;7.460;2024-01-30T04:32:58;8.38;;;4.78;;
59054;SDS011;44845;51.444;7.460;2024-01-30T04:35:23;10.90;;;4.55;;
59054;SDS011;44845;51.444;7.460;2024-01-30T04:37:49;7.63;;;4.70;;
59054;SDS011;44845;51.444;7.460;2024-01-30T04:40:16;6.60;;;4.40;;
59054;SDS011;44845;51.444;7.460;2024-01-30T04:42:42;7.20;;;4.43;;
59054;SDS011;44845;51.444;7.460;2024-01-30T04:45:07;7.45;;;4.82;;
59054;SDS011;44845;51.444;7.460;2024-01-30T04:47:33;6.65;;;4.45;;
59054;SDS011;44845;51.444;7.460;2024-01-30T04:49:58;8.65;;;4.20;;
59054;SDS011;44845;51.444;7.460;2024-01-30T04:52:23;8.07;;;5.05;;
59054;SDS011;44845;51.444;7.460;2024-01-30T04:54:49;6.18;;;4.13;;
59054;SDS011;44845;51.444;7.460;2024-01-30T04:57:14;5.78;;;4.35;;
59054;SDS011;44845;51.444;7.460;2024-01-30T04:59:40;7.25;;;4.55;;
59054;SDS011;44845;51.444;7.460;2024-01-30T05:02:05;8.02;;;5.07;;
59054;SDS011;44845;51.444;7.460;2024-01-30T05:04:30;5.97;;;4.07;;
59054;SDS011;44845;51.444;7.460;2024-01-30T05:06:56;6.88;;;4.97;;
59054;SDS011;44845;51.444;7.460;2024-01-30T05:09:21;8.18;;;4.60;;
59054;SDS011;44845;51.444;7.460;2024-01-30T05:11:47;7.32;;;4.50;;
59054;SDS011;44845;51.444;7.460;2024-01-30T05:14:12;8.65;;;5.10;;
59054;SDS011;44845;51.444;7.460;2024-01-30T05:16:39;7.55;;;4.63;;
59054;SDS011;44845;51.444;7.460;2024-01-30T05:19:05;7.68;;;4.45;;
59054;SDS011;44845;51.444;7.460;2024-01-30T05:21:31;6.50;;;4.50;;
59054;SDS011;44845;51.444;7.460;2024-01-30T05:23:56;7.43;;;4.55;;
59054;SDS011;44845;51.444;7.460;2024-01-30T05:26:21;9.60;;;4.55;;
59054;SDS011;44845;51.444;7.460;2024-01-30T05:28:48;10.07;;;5.20;;
59054;SDS011;44845;51.444;7.460;2024-01-30T05:31:13;5.97;;;4.20;;
59054;SDS011;44845;51.444;7.460;2024-01-30T05:33:38;8.27;;;3.90;;
59054;SDS011;44845;51.444;7.460;2024-01-30T05:36:04;8.45;;;4.50;;
59054;SDS011;44845;51.444;7.460;2024-01-30T05:38:29;8.82;;;4.03;;
59054;SDS011;44845;51.444;7.460;2024-01-30T05:40:55;8.75;;;3.92;;
59054;SDS011;44845;51.444;7.460;2024-01-30T05:43:22;6.88;;;4.20;;
59054;SDS011;44845;51.444;7.460;2024-01-30T05:45:48;6.18;;;3.90;;
59054;SDS011;44845;51.444;7.460;2024-01-30T05:48:13;7.05;;;4.03;;
59054;SDS011;44845;51.444;7.460;2024-01-30T05:50:38;8.15;;;3.97;;
59054;SDS011;44845;51.444;7.460;2024-01-30T05:53:04;9.13;;;4.10;;
59054;SDS011;44845;51.444;7.460;2024-01-30T05:55:29;7.78;;;4.38;;
59054;SDS011;44845;51.444;7.460;2024-01-30T05:57:54;7.45;;;4.07;;
59054;SDS011;44845;51.444;7.460;2024-01-30T06:00:20;6.00;;;3.80;;
59054;SDS011;44845;51.444;7.460;2024-01-30T06:02:45;6.03;;;3.90;;
59054;SDS011;44845;51.444;7.460;2024-01-30T06:05:11;8.73;;;4.30;;
59054;SDS011;44845;51.444;7.460;2024-01-30T06:07:36;6.13;;;4.15;;
59054;SDS011;44845;51.444;7.460;2024-01-30T06:10:02;6.60;;;4.22;;
59054;SDS011;44845;51.444;7.460;2024-01-30T06:12:28;7.72;;;3.60;;
59054;SDS011;44845;51.444;7.460;2024-01-30T06:14:53;6.75;;;4.38;;
59054;SDS011;44845;51.444;7.460;2024-01-30T06:17:21;8.60;;;4.30;;
59054;SDS011;44845;51.444;7.460;2024-01-30T06:19:47;7.65;;;4.40;;
59054;SDS011;44845;51.444;7.460;2024-01-30T06:22:13;5.72;;;3.80;;
59054;SDS011;44845;51.444;7.460;2024-01-30T06:24:38;6.95;;;4.30;;
59054;SDS011;44845;51.444;7.460;2024-01-30T06:27:03;7.20;;;4.35;;
59054;SDS011;44845;51.444;7.460;2024-01-30T06:29:29;5.78;;;4.25;;
59054;SDS011;44845;51.444;7.460;2024-01-30T06:31:54;7.15;;;4.25;;
59054;SDS011;44845;51.444;7.460;2024-01-30T06:34:19;7.70;;;4.28;;
59054;SDS011;44845;51.444;7.460;2024-01-30T06:36:45;8.38;;;3.97;;
59054;SDS011;44845;51.444;7.460;2024-01-30T06:39:10;8.38;;;4.03;;
59054;SDS011;44845;51.444;7.460;2024-01-30T06:41:35;7.03;;;4.53;;
59054;SDS011;44845;51.444;7.460;2024-01-30T06:44:04;7.90;;;4.00;;
59054;SDS011;44845;51.444;7.460;2024-01-30T06:46:31;7.40;;;4.40;;
59054;SDS011;44845;51.444;7.460;2024-01-30T06:48:57;6.82;;;4.43;;
59054;SDS011;44845;51.444;7.460;2024-01-30T06:51:23;6.80;;;4.47;;
59054;SDS011;44845;51.444;7.460;2024-01-30T06:53:48;6.88;;;4.60;;
59054;SDS011;44845;51.444;7.460;2024-01-30T06:56:13;9.23;;;4.50;;
59054;SDS011;44845;51.444;7.460;2024-01-30T06:58:38;7.60;;;4.35;;
59054;SDS011;44845;51.444;7.460;2024-01-30T07:01:04;7.38;;;3.88;;
59054;SDS011;44845;51.444;7.460;2024-01-30T07:03:29;4.90;;;3.45;;
59054;SDS011;44845;51.444;7.460;2024-01-30T07:05:55;5.40;;;3.70;;
59054;SDS011;44845;51.444;7.460;2024-01-30T07:08:20;7.68;;;4.22;;
59054;SDS011;44845;51.444;7.460;2024-01-30T07:10:45;6.55;;;3.88;;
59054;SDS011;44845;51.444;7.460;2024-01-30T07:13:11;6.05;;;3.58;;
59054;SDS011;44845;51.444;7.460;2024-01-30T07:15:37;7.75;;;3.88;;
59054;SDS011;44845;51.444;7.460;2024-01-30T07:18:02;5.32;;;4.05;;
59054;SDS011;44845;51.444;7.460;2024-01-30T07:20:29;9.07;;;4.80;;
59054;SDS011;44845;51.444;7.460;2024-01-30T07:22:56;8.52;;;4.18;;
59054;SDS011;44845;51.444;7.460;2024-01-30T07:25:22;7.95;;;4.45;;
59054;SDS011;44845;51.444;7.460;2024-01-30T07:27:51;9.98;;;4.50;;
59054;SDS011;44845;51.444;7.460;2024-01-30T07:30:17;6.00;;;3.83;;
59054;SDS011;44845;51.444;7.460;2024-01-30T07:32:43;7.10;;;4.40;;
59054;SDS011;44845;51.444;7.460;2024-01-30T07:35:09;7.38;;;4.53;;
59054;SDS011;44845;51.444;7.460;2024-01-30T07:37:34;9.35;;;4.22;;
59054;SDS011;44845;51.444;7.460;2024-01-30T07:39:59;6.88;;;4.13;;
59054;SDS011;44845;51.444;7.460;2024-01-30T07:42:25;7.90;;;4.60;;
59054;SDS011;44845;51.444;7.460;2024-01-30T07:44:50;5.40;;;4.13;;
59054;SDS011;44845;51.444;7.460;2024-01-30T07:47:16;9.20;;;4.40;;
59054;SDS011;44845;51.444;7.460;2024-01-30T07:49:41;6.70;;;3.88;;
59054;SDS011;44845;51.444;7.460;2024-01-30T07:52:06;5.97;;;4.15;;
59054;SDS011;44845;51.444;7.460;2024-01-30T07:54:32;6.22;;;4.10;;
59054;SDS011;44845;51.444;7.460;2024-01-30T07:56:58;6.85;;;3.85;;
59054;SDS011;44845;51.444;7.460;2024-01-30T07:59:25;7.50;;;4.13;;
59054;SDS011;44845;51.444;7.460;2024-01-30T08:01:50;7.43;;;4.00;;
59054;SDS011;44845;51.444;7.460;2024-01-30T08:04:16;6.22;;;4.00;;
59054;SDS011;44845;51.444;7.460;2024-01-30T08:06:42;5.28;;;4.00;;
59054;SDS011;44845;51.444;7.460;2024-01-30T08:09:08;8.10;;;4.10;;
59054;SDS011;44845;51.444;7.460;2024-01-30T08:11:33;9.38;;;3.80;;
59054;SDS011;44845;51.444;7.460;2024-01-30T08:13:59;5.93;;;3.50;;
59054;SDS011;44845;51.444;7.460;2024-01-30T08:16:24;8.65;;;4.05;;
59054;SDS011;44845;51.444;7.460;2024-01-30T08:18:49;4.68;;;3.60;;
59054;SDS011;44845;51.444;7.460;2024-01-30T08:21:15;7.10;;;3.63;;
59054;SDS011;44845;51.444;7.460;2024-01-30T08:23:40;6.63;;;3.40;;
59054;SDS011;44845;51.444;7.460;2024-01-30T08:26:06;8.07;;;3.58;;
59054;SDS011;44845;51.444;7.460;2024-01-30T08:28:31;5.55;;;3.80;;
59054;SDS011;44845;51.444;7.460;2024-01-30T08:30:57;6.95;;;3.45;;
59054;SDS011;44845;51.444;7.460;2024-01-30T08:33:22;7.93;;;4.05;;
59054;SDS011;44845;51.444;7.460;2024-01-30T08:35:47;7.43;;;3.97;;
59054;SDS011;44845;51.444;7.460;2024-01-30T08:38:13;8.23;;;4.60;;
59054;SDS011;44845;51.444;7.460;2024-01-30T08:40:39;6.57;;;3.85;;
59054;SDS011;44845;51.444;7.460;2024-01-30T08:43:04;9.23;;;4.05;;
59054;SDS011;44845;51.444;7.460;2024-01-30T08:45:29;6.72;;;3.95;;
59054;SDS011;44845;51.444;7.460;2024-01-30T08:47:55;8.55;;;4.05;;
59054;SDS011;44845;51.444;7.460;2024-01-30T08:50:21;7.30;;;3.72;;
59054;SDS011;44845;51.444;7.460;2024-01-30T08:52:46;6.55;;;3.97;;
59054;SDS011;44845;51.444;7.460;2024-01-30T08:55:11;4.55;;;3.13;;
59054;SDS011;44845;51.444;7.460;2024-01-30T08:57:37;7.38;;;3.92;;
59054;SDS011;44845;51.444;7.460;2024-01-30T09:00:03;5.70;;;3.75;;
59054;SDS011;44845;51.444;7.460;2024-01-30T09:02:31;8.55;;;3.88;;
59054;SDS011;44845;51.444;7.460;2024-01-30T09:04:57;10.93;;;3.97;;
59054;SDS011;44845;51.444;7.460;2024-01-30T09:07:22;7.68;;;3.72;;
59054;SDS011;44845;51.444;7.460;2024-01-30T09:09:48;6.00;;;3.60;;
59054;SDS011;44845;51.444;7.460;2024-01-30T09:12:14;6.30;;;3.58;;
59054;SDS011;44845;51.444;7.460;2024-01-30T09:14:39;8.00;;;4.22;;
59054;SDS011;44845;51.444;7.460;2024-01-30T09:17:05;6.07;;;3.38;;
59054;SDS011;44845;51.444;7.460;2024-01-30T09:19:31;7.25;;;3.92;;
59054;SDS011;44845;51.444;7.460;2024-01-30T09:21:56;6.45;;;3.47;;
59054;SDS011;44845;51.444;7.460;2024-01-30T09:24:22;8.40;;;3.63;;
59054;SDS011;44845;51.444;7.460;2024-01-30T09:26:47;7.85;;;3.75;;
59054;SDS011;44845;51.444;7.460;2024-01-30T09:29:12;9.02;;;4.32;;
59054;SDS011;44845;51.444;7.460;2024-01-30T09:31:38;7.20;;;4.00;;
59054;SDS011;44845;51.444;7.460;2024-01-30T09:34:03;8.43;;;4.22;;
59054;SDS011;44845;51.444;7.460;2024-01-30T09:36:28;6.15;;;4.25;;
59054;SDS011;44845;51.444;7.460;2024-01-30T09:38:54;7.55;;;4.40;;
59054;SDS011;44845;51.444;7.460;2024-01-30T09:41:19;6.13;;;3.85;;
59054;SDS011;44845;51.444;7.460;2024-01-30T09:43:48;6.88;;;3.60;;
59054;SDS011;44845;51.444;7.460;2024-01-30T09:46:14;5.50;;;3.65;;
59054;SDS011;44845;51.444;7.460;2024-01-30T09:48:42;6.55;;;3.70;;
59054;SDS011;44845;51.444;7.460;2024-01-30T09:51:09;6.80;;;3.55;;
59054;SDS011;44845;51.444;7.460;2024-01-30T09:53:35;5.82;;;3.80;;
59054;SDS011;44845;51.444;7.460;2024-01-30T09:56:02;6.30;;;4.38;;
59054;SDS011;44845;51.444;7.460;2024-01-30T09:58:27;7.35;;;4.65;;
59054;SDS011;44845;51.444;7.460;2024-01-30T10:00:53;6.20;;;4.15;;
59054;SDS011;44845;51.444;7.460;2024-01-30T10:03:19;11.50;;;4.90;;
59054;SDS011;44845;51.444;7.460;2024-01-30T10:05:45;4.82;;;3.70;;
59054;SDS011;44845;51.444;7.460;2024-01-30T10:08:17;6.85;;;4.00;;
59054;SDS011;44845;51.444;7.460;2024-01-30T10:10:45;8.40;;;4.70;;
59054;SDS011;44845;51.444;7.460;2024-01-30T10:13:12;10.00;;;4.53;;
59054;SDS011;44845;51.444;7.460;2024-01-30T10:15:37;7.07;;;3.85;;
59054;SDS011;44845;51.444;7.460;2024-01-30T10:18:04;10.20;;;4.03;;
59054;SDS011;44845;51.444;7.460;2024-01-30T10:20:31;5.47;;;3.95;;
59054;SDS011;44845;51.444;7.460;2024-01-30T10:22:59;6.43;;;3.90;;
59054;SDS011;44845;51.444;7.460;2024-01-30T10:25:25;7.57;;;3.92;;
59054;SDS011;44845;51.444;7.460;2024-01-30T10:27:53;9.25;;;4.45;;
59054;SDS011;44845;51.444;7.460;2024-01-30T10:30:20;7.53;;;3.92;;
59054;SDS011;44845;51.444;7.460;2024-01-30T10:32:46;4.88;;;3.28;;
59054;SDS011;44845;51.444;7.460;2024-01-30T10:35:11;7.07;;;3.65;;
59054;SDS011;44845;51.444;7.460;2024-01-30T10:37:37;6.30;;;3.97;;
59054;SDS011;44845;51.444;7.460;2024-01-30T10:40:03;7.78;;;3.90;;
59054;SDS011;44845;51.444;7.460;2024-01-30T10:42:31;5.85;;;3.90;;
59054;SDS011;44845;51.444;7.460;2024-01-30T10:45:15;7.72;;;4.15;;
59054;SDS011;44845;51.444;7.460;2024-01-30T10:47:43;9.38;;;4.10;;
59054;SDS011;44845;51.444;7.460;2024-01-30T10:50:13;8.13;;;4.07;;
59054;SDS011;44845;51.444;7.460;2024-01-30T10:52:39;7.47;;;3.65;;
59054;SDS011;44845;51.444;7.460;2024-01-30T10:55:07;5.85;;;3.80;;
59054;SDS011;44845;51.444;7.460;2024-01-30T10:57:34;5.68;;;3.80;;
59054;SDS011;44845;51.444;7.460;2024-01-30T11:00:02;4.07;;;3.20;;
59054;SDS011;44845;51.444;7.460;2024-01-30T11:02:37;9.50;;;3.50;;
59054;SDS011;44845;51.444;7.460;2024-01-30T11:05:05;6.65;;;3.80;;
59054;SDS011;44845;51.444;7.460;2024-01-30T11:07:30;5.38;;;3.30;;
59054;SDS011;44845;51.444;7.460;2024-01-30T11:10:00;6.53;;;3.78;;
59054;SDS011;44845;51.444;7.460;2024-01-30T11:12:28;6.22;;;3.63;;
59054;SDS011;44845;51.444;7.460;2024-01-30T11:15:07;9.80;;;3.90;;
59054;SDS011;44845;51.444;7.460;2024-01-30T11:20:20;5.65;;;3.50;;
59054;SDS011;44845;51.444;7.460;2024-01-30T11:22:56;7.57;;;3.83;;
59054;SDS011;44845;51.444;7.460;2024-01-30T11:25:22;9.43;;;4.00;;
59054;SDS011;44845;51.444;7.460;2024-01-30T11:27:54;5.80;;;3.50;;
59054;SDS011;44845;51.444;7.460;2024-01-30T11:30:24;6.57;;;3.92;;
59054;SDS011;44845;51.444;7.460;2024-01-30T11:33:04;6.90;;;3.60;;
59054;SDS011;44845;51.444;7.460;2024-01-30T11:35:34;7.13;;;3.40;;
59054;SDS011;44845;51.444;7.460;2024-01-30T11:38:01;7.20;;;3.58;;
59054;SDS011;44845;51.444;7.460;2024-01-30T11:40:28;7.88;;;4.03;;
59054;SDS011;44845;51.444;7.460;2024-01-30T11:42:55;8.63;;;3.83;;
59054;SDS011;44845;51.444;7.460;2024-01-30T11:45:21;8.75;;;3.47;;
59054;SDS011;44845;51.444;7.460;2024-01-30T11:47:47;8.23;;;3.33;;
59054;SDS011;44845;51.444;7.460;2024-01-30T11:50:12;6.22;;;3.50;;
59054;SDS011;44845;51.444;7.460;2024-01-30T11:52:39;7.00;;;3.13;;
59054;SDS011;44845;51.444;7.460;2024-01-30T11:55:05;11.40;;;3.80;;
59054;SDS011;44845;51.444;7.460;2024-01-30T11:57:31;11.98;;;4.25;;
59054;SDS011;44845;51.444;7.460;2024-01-30T11:59:56;5.70;;;3.38;;
59054;SDS011;44845;51.444;7.460;2024-01-30T12:02:22;7.50;;;3.83;;
59054;SDS011;44845;51.444;7.460;2024-01-30T12:04:47;8.70;;;3.95;;
59054;SDS011;44845;51.444;7.460;2024-01-30T12:07:13;6.13;;;3.55;;
59054;SDS011;44845;51.444;7.460;2024-01-30T12:09:41;12.45;;;3.60;;
59054;SDS011;44845;51.444;7.460;2024-01-30T12:12:06;7.68;;;3.55;;
59054;SDS011;44845;51.444;7.460;2024-01-30T12:14:32;9.10;;;3.60;;
59054;SDS011;44845;51.444;7.460;2024-01-30T12:17:00;6.93;;;3.53;;
59054;SDS011;44845;51.444;7.460;2024-01-30T12:19:25;10.20;;;3.85;;
59054;SDS011;44845;51.444;7.460;2024-01-30T12:21:54;8.15;;;3.97;;
59054;SDS011;44845;51.444;7.460;2024-01-30T12:24:21;9.77;;;4.28;;
59054;SDS011;44845;51.444;7.460;2024-01-30T12:26:47;7.93;;;4.03;;
59054;SDS011;44845;51.444;7.460;2024-01-30T12:29:14;8.77;;;4.28;;
59054;SDS011;44845;51.444;7.460;2024-01-30T12:31:41;9.02;;;3.88;;
59054;SDS011;44845;51.444;7.460;2024-01-30T12:34:07;13.43;;;3.70;;
59054;SDS011;44845;51.444;7.460;2024-01-30T12:36:32;9.57;;;3.80;;
59054;SDS011;44845;51.444;7.460;2024-01-30T12:38:59;9.40;;;3.80;;
59054;SDS011;44845;51.444;7.460;2024-01-30T12:41:25;9.88;;;3.72;;
59054;SDS011;44845;51.444;7.460;2024-01-30T12:43:53;12.60;;;4.10;;
59054;SDS011;44845;51.444;7.460;2024-01-30T12:46:19;10.80;;;4.18;;
59054;SDS011;44845;51.444;7.460;2024-01-30T12:48:44;8.43;;;3.15;;
59054;SDS011;44845;51.444;7.460;2024-01-30T12:51:10;10.40;;;4.15;;
59054;SDS011;44845;51.444;7.460;2024-01-30T12:53:35;12.48;;;4.35;;
59054;SDS011;44845;51.444;7.460;2024-01-30T12:56:00;12.20;;;4.63;;
59054;SDS011;44845;51.444;7.460;2024-01-30T12:58:26;7.55;;;3.85;;
59054;SDS011;44845;51.444;7.460;2024-01-30T13:00:51;8.35;;;4.13;;
59054;SDS011;44845;51.444;7.460;2024-01-30T13:03:18;11.50;;;4.25;;
59054;SDS011;44845;51.444;7.460;2024-01-30T13:05:44;8.25;;;3.92;;
59054;SDS011;44845;51.444;7.460;2024-01-30T13:08:09;13.48;;;4.88;;
59054;SDS011;44845;51.444;7.460;2024-01-30T13:10:34;11.15;;;4.57;;
59054;SDS011;44845;51.444;7.460;2024-01-30T13:13:00;7.25;;;3.97;;
59054;SDS011;44845;51.444;7.460;2024-01-30T13:15:25;15.77;;;5.20;;
59054;SDS011;44845;51.444;7.460;2024-01-30T13:17:50;8.63;;;4.15;;
59054;SDS011;44845;51.444;7.460;2024-01-30T13:20:17;8.68;;;4.20;;
59054;SDS011;44845;51.444;7.460;2024-01-30T13:22:45;17.45;;;4.75;;
59054;SDS011;44845;51.444;7.460;2024-01-30T13:25:11;13.95;;;4.28;;
59054;SDS011;44845;51.444;7.460;2024-01-30T13:27:37;16.98;;;4.70;;
59054;SDS011;44845;51.444;7.460;2024-01-30T13:30:02;13.15;;;4.85;;
59054;SDS011;44845;51.444;7.460;2024-01-30T13:32:28;12.23;;;4.50;;
59054;SDS011;44845;51.444;7.460;2024-01-30T13:34:54;13.05;;;4.32;;
59054;SDS011;44845;51.444;7.460;2024-01-30T13:37:19;10.20;;;4.45;;
59054;SDS011;44845;51.444;7.460;2024-01-30T13:39:47;14.90;;;4.68;;
59054;SDS011;44845;51.444;7.460;2024-01-30T13:42:12;12.65;;;4.75;;
59054;SDS011;44845;51.444;7.460;2024-01-30T13:44:37;11.02;;;4.70;;
59054;SDS011;44845;51.444;7.460;2024-01-30T13:47:03;9.95;;;4.25;;
59054;SDS011;44845;51.444;7.460;2024-01-30T13:49:28;9.80;;;4.78;;
59054;SDS011;44845;51.444;7.460;2024-01-30T13:51:54;9.65;;;4.43;;
59054;SDS011;44845;51.444;7.460;2024-01-30T13:54:19;12.32;;;5.75;;
59054;SDS011;44845;51.444;7.460;2024-01-30T13:56:45;10.40;;;4.43;;
59054;SDS011;44845;51.444;7.460;2024-01-30T13:59:10;13.70;;;5.63;;
59054;SDS011;44845;51.444;7.460;2024-01-30T14:01:35;11.93;;;5.18;;
59054;SDS011;44845;51.444;7.460;2024-01-30T14:04:01;10.40;;;5.20;;
59054;SDS011;44845;51.444;7.460;2024-01-30T14:06:26;9.88;;;4.78;;
59054;SDS011;44845;51.444;7.460;2024-01-30T14:08:52;11.90;;;5.22;;
59054;SDS011;44845;51.444;7.460;2024-01-30T14:11:17;12.25;;;4.68;;
59054;SDS011;44845;51.444;7.460;2024-01-30T14:13:43;11.27;;;5.10;;
59054;SDS011;44845;51.444;7.460;2024-01-30T14:16:09;8.25;;;4.93;;
59054;SDS011;44845;51.444;7.460;2024-01-30T14:18:34;11.13;;;4.93;;
59054;SDS011;44845;51.444;7.460;2024-01-30T14:21:00;9.93;;;4.80;;
59054;SDS011;44845;51.444;7.460;2024-01-30T14:23:26;9.30;;;4.45;;
59054;SDS011;44845;51.444;7.460;2024-01-30T14:25:51;6.68;;;4.78;;
59054;SDS011;44845;51.444;7.460;2024-01-30T14:28:17;10.57;;;5.05;;
59054;SDS011;44845;51.444;7.460;2024-01-30T14:30:43;8.13;;;4.90;;
59054;SDS011;44845;51.444;7.460;2024-01-30T14:33:08;9.13;;;4.78;;
59054;SDS011;44845;51.444;7.460;2024-01-30T14:35:33;13.23;;;5.20;;
59054;SDS011;44845;51.444;7.460;2024-01-30T14:37:59;6.93;;;4.57;;
59054;SDS011;44845;51.444;7.460;2024-01-30T14:40:24;7.78;;;4.88;;